Columbus, Ohio
Traffic Map
Current Weather Conditions
Columbus, Ohio
Overcast Moderate Rain
Overcast
57°
Feels Like: 57°
Wind Chill: 57° Ceiling: 4200
Heat Index: 57° Visibility: 1mi
Dew Point: 54° Wind: 9mph
Humidity: 89% Direction: 220° (SW)
Pressure: 29.96in Gusts: 23mph
Raw Report DataKCMH 261904Z 22008G20KT 1SM R28L/5000VP6000FT RA BR FEW012 BKN042 OVC050 14/12 A2996 RMK AO2 TWR VIS 4 P0011 T01390122
Traffic Incident Summary
Active as of:
Severity:
Category:
InformationThere was an issue retrieving the traffic information for this location. Please try a different location or try again shortly.
Advertisements
Track Severe Weather on mobile